Time;durP1;ratioP1;P1;durP2;ratioP2;P2;SDS_P1;SDS_P2;PMS_P1;PMS_P2;Temp;Humidity;BMP_temperature;BMP_pressure;BME280_temperature;BME280_humidity;BME280_pressure;Samples;Min_cycle;Max_cycle;Signal;HPM_P1;HPM_P2
2021/06/22 00:01:57;;;;;;;7.40;6.67;;;23.00;99.90;;;;;;5114726;28;20964;-47
2021/06/22 00:04:23;;;;;;;9.73;6.23;;;23.00;99.90;;;;;;5114856;28;20437;-47
2021/06/22 00:06:50;;;;;;;6.77;6.17;;;23.00;99.90;;;;;;5113995;28;20509;-52
2021/06/22 00:09:17;;;;;;;7.50;6.50;;;22.90;99.90;;;;;;5115058;28;20933;-51
2021/06/22 00:11:44;;;;;;;12.50;7.07;;;22.90;99.90;;;;;;5114559;28;20472;-50
2021/06/22 00:14:12;;;;;;;8.90;6.60;;;22.90;99.90;;;;;;5114924;28;20484;-51
2021/06/22 00:16:38;;;;;;;11.23;7.50;;;23.00;99.90;;;;;;5114832;28;20444;-51
2021/06/22 00:19:05;;;;;;;14.60;7.67;;;22.90;99.90;;;;;;5114686;28;20460;-53
2021/06/22 00:21:32;;;;;;;6.87;6.20;;;22.90;99.90;;;;;;5114786;28;20531;-48
2021/06/22 00:23:59;;;;;;;12.30;7.43;;;22.90;99.90;;;;;;5114563;28;20441;-52
2021/06/22 00:26:25;;;;;;;8.67;6.30;;;22.90;99.90;;;;;;5114928;28;20452;-52
2021/06/22 00:28:52;;;;;;;11.10;7.50;;;22.90;99.90;;;;;;5114479;28;20448;-56
2021/06/22 00:31:20;;;;;;;8.07;7.07;;;22.90;99.90;;;;;;5114883;28;20455;-53
2021/06/22 00:33:46;;;;;;;9.70;8.10;;;22.80;99.90;;;;;;5114666;28;20782;-53
2021/06/22 00:36:13;;;;;;;13.40;9.00;;;22.70;99.90;;;;;;5114666;28;20448;-54
2021/06/22 00:38:40;;;;;;;11.93;8.13;;;22.50;99.90;;;;;;5114674;28;20497;-50
2021/06/22 00:41:07;;;;;;;8.83;8.03;;;22.40;99.90;;;;;;5114432;28;20458;-53
2021/06/22 00:43:37;;;;;;;10.40;8.87;;;22.50;99.90;;;;;;5114618;28;20464;-48
2021/06/22 00:46:07;;;;;;;11.07;7.60;;;22.50;99.90;;;;;;5114570;28;20444;-48
2021/06/22 00:48:35;;;;;;;8.80;8.03;;;22.60;99.90;;;;;;5114446;28;20462;-47
2021/06/22 00:51:02;;;;;;;16.40;7.97;;;22.60;99.90;;;;;;5114566;28;20448;-47
2021/06/22 00:53:29;;;;;;;12.73;9.57;;;22.60;99.90;;;;;;5114168;28;20451;-52
2021/06/22 00:55:56;;;;;;;12.80;8.97;;;22.70;99.90;;;;;;5114078;28;20946;-52
2021/06/22 00:58:24;;;;;;;10.40;8.00;;;22.60;99.90;;;;;;5114476;28;20805;-51
2021/06/22 01:00:51;;;;;;;8.10;7.30;;;22.60;99.90;;;;;;5114188;28;20492;-52
2021/06/22 01:03:18;;;;;;;9.00;8.10;;;22.50;99.90;;;;;;5114050;28;20908;-51
2021/06/22 01:05:46;;;;;;;15.70;8.80;;;22.50;99.90;;;;;;5114069;28;20437;-53
2021/06/22 01:08:14;;;;;;;13.00;8.47;;;22.50;99.90;;;;;;5114165;28;20464;-51
2021/06/22 01:10:40;;;;;;;9.50;8.60;;;22.60;99.90;;;;;;5114453;28;20444;-49
2021/06/22 01:13:07;;;;;;;11.73;7.97;;;22.50;99.90;;;;;;5114624;28;20452;-50
2021/06/22 01:15:36;;;;;;;10.10;7.33;;;22.30;99.90;;;;;;5114426;28;20472;-50
2021/06/22 01:18:04;;;;;;;14.97;8.10;;;22.40;99.90;;;;;;5116265;28;20517;-53
2021/06/22 01:20:32;;;;;;;9.97;8.30;;;22.50;99.90;;;;;;5118623;28;20451;-49
2021/06/22 01:23:02;;;;;;;9.70;8.70;;;22.50;99.90;;;;;;5118256;28;20451;-51
2021/06/22 01:25:30;;;;;;;7.80;7.00;;;22.50;99.90;;;;;;5118197;28;20456;-51
2021/06/22 01:27:57;;;;;;;12.37;8.00;;;22.40;99.90;;;;;;5118550;28;20440;-47
2021/06/22 01:30:28;;;;;;;11.73;8.33;;;22.40;99.90;;;;;;5118480;28;20444;-48
2021/06/22 01:32:56;;;;;;;9.40;8.07;;;22.40;99.90;;;;;;5118108;28;20513;-48
2021/06/22 01:35:23;;;;;;;10.53;8.20;;;22.50;99.90;;;;;;5117951;28;20968;-52
2021/06/22 01:37:51;;;;;;;11.80;8.90;;;22.50;99.90;;;;;;5118307;28;20455;-53
2021/06/22 01:40:20;;;;;;;10.27;8.10;;;22.40;99.90;;;;;;5118146;28;20799;-53
2021/06/22 01:42:46;;;;;;;13.47;8.43;;;22.50;99.90;;;;;;5118022;28;20525;-52
2021/06/22 01:45:14;;;;;;;10.20;7.80;;;22.40;99.90;;;;;;5117825;28;20441;-50
2021/06/22 01:47:41;;;;;;;12.20;8.70;;;22.30;99.90;;;;;;5117811;28;20974;-48
2021/06/22 01:50:09;;;;;;;12.60;9.53;;;22.20;99.90;;;;;;5117962;28;20449;-49
2021/06/22 01:52:36;;;;;;;12.10;8.40;;;22.20;99.90;;;;;;5118061;28;20497;-50
2021/06/22 01:55:34;;;;;;;10.87;8.63;;;22.10;99.90;;;;;;5117818;28;20480;-46
2021/06/22 01:57:57;;;;;;;9.40;8.50;;;22.00;99.90;;;;;;5117645;28;20449;-51
2021/06/22 02:00:24;;;;;;;12.80;9.03;;;22.00;99.90;;;;;;5117684;28;20810;-50
2021/06/22 02:02:51;;;;;;;12.80;8.90;;;21.90;99.90;;;;;;5117840;28;20964;-46
2021/06/22 02:05:18;;;;;;;14.00;9.43;;;21.80;99.90;;;;;;5117903;28;20493;-50
2021/06/22 02:07:45;;;;;;;10.87;9.57;;;21.80;99.90;;;;;;5117520;28;20840;-52
2021/06/22 02:10:12;;;;;;;13.40;8.47;;;21.80;99.90;;;;;;5117665;28;20456;-47
2021/06/22 02:15:09;;;;;;;10.70;9.00;;;21.80;99.90;;;;;;5122734;22;20477;-51
2021/06/22 02:17:36;;;;;;;10.43;8.87;;;21.70;99.90;;;;;;5117209;28;20975;-53
2021/06/22 02:20:04;;;;;;;9.77;8.73;;;21.60;99.90;;;;;;5117323;28;20444;-49
2021/06/22 02:22:34;;;;;;;10.40;8.47;;;21.60;99.90;;;;;;5117338;28;20448;-55
2021/06/22 02:25:01;;;;;;;10.07;8.50;;;21.70;99.90;;;;;;5117230;28;20501;-51
2021/06/22 02:27:32;;;;;;;10.10;9.10;;;21.70;99.90;;;;;;5117366;28;20444;-53
2021/06/22 02:29:59;;;;;;;10.03;9.00;;;21.60;99.90;;;;;;5116069;28;20501;-52
2021/06/22 02:32:29;;;;;;;12.30;8.17;;;21.60;99.90;;;;;;5117243;28;20513;-49
2021/06/22 02:34:56;;;;;;;12.20;8.93;;;21.70;99.90;;;;;;5116958;28;20507;-47
2021/06/22 02:37:23;;;;;;;14.43;9.83;;;21.60;99.90;;;;;;5117029;28;20452;-49
2021/06/22 02:39:49;;;;;;;14.50;9.10;;;21.60;99.90;;;;;;5117131;28;20509;-51
2021/06/22 02:42:16;;;;;;;9.23;8.20;;;21.70;99.90;;;;;;5116999;28;20773;-54
2021/06/22 02:44:43;;;;;;;10.00;8.57;;;21.70;99.90;;;;;;5117058;28;20502;-53
2021/06/22 02:47:13;;;;;;;9.70;8.70;;;21.60;99.90;;;;;;5117053;28;20464;-54
2021/06/22 02:49:41;;;;;;;11.40;8.10;;;21.60;99.90;;;;;;5116767;28;20831;-53
2021/06/22 02:52:09;;;;;;;8.73;7.43;;;21.70;99.90;;;;;;5117013;28;20452;-52
2021/06/22 02:54:38;;;;;;;8.90;8.00;;;21.70;99.90;;;;;;5116537;28;20875;-49
2021/06/22 02:57:06;;;;;;;8.63;7.50;;;21.70;99.90;;;;;;5116713;28;20520;-51
2021/06/22 02:59:33;;;;;;;10.70;7.87;;;21.60;99.90;;;;;;5116408;28;20506;-53
2021/06/22 03:02:00;;;;;;;9.27;7.13;;;21.60;99.90;;;;;;5116569;28;20441;-53
2021/06/22 03:04:27;;;;;;;9.30;6.93;;;21.60;99.90;;;;;;5116419;28;20437;-48
2021/06/22 03:06:55;;;;;;;8.27;7.43;;;21.60;99.90;;;;;;5116373;28;20499;-52
2021/06/22 03:09:22;;;;;;;12.40;7.23;;;21.60;99.90;;;;;;5116499;28;20456;-52
2021/06/22 03:11:48;;;;;;;14.77;8.60;;;21.60;99.90;;;;;;5116603;28;20444;-53
2021/06/22 03:14:15;;;;;;;8.40;7.00;;;21.50;99.90;;;;;;5116245;28;20456;-54
2021/06/22 03:16:42;;;;;;;11.90;8.33;;;21.40;99.90;;;;;;5116711;28;20463;-53
2021/06/22 03:19:08;;;;;;;8.63;7.50;;;21.30;99.90;;;;;;5116205;28;20455;-49
2021/06/22 03:21:36;;;;;;;9.50;8.50;;;21.40;99.90;;;;;;5116365;28;20954;-48
2021/06/22 03:24:05;;;;;;;7.90;7.10;;;21.30;99.90;;;;;;5116265;28;20452;-48
2021/06/22 03:26:32;;;;;;;9.10;6.20;;;21.40;99.90;;;;;;5116079;28;20501;-50
2021/06/22 03:28:58;;;;;;;8.63;6.90;;;21.50;99.90;;;;;;5115853;28;20452;-49
2021/06/22 03:31:25;;;;;;;8.27;7.47;;;21.50;99.90;;;;;;5115982;28;21037;-51
2021/06/22 03:33:52;;;;;;;8.20;6.90;;;21.50;99.90;;;;;;5115758;28;20963;-51
2021/06/22 03:36:18;;;;;;;10.23;7.10;;;21.50;99.90;;;;;;5115634;28;20480;-50
2021/06/22 03:38:45;;;;;;;9.63;7.53;;;21.50;99.90;;;;;;5115941;28;20509;-51
2021/06/22 03:41:13;;;;;;;7.80;6.70;;;21.50;99.90;;;;;;5115783;28;20452;-53
2021/06/22 03:43:40;;;;;;;8.90;8.00;;;21.50;99.90;;;;;;5115719;28;20737;-53
2021/06/22 03:46:10;;;;;;;8.00;6.67;;;21.60;99.90;;;;;;5115858;28;20449;-50
2021/06/22 03:48:36;;;;;;;9.27;7.13;;;21.60;99.90;;;;;;5115558;28;20436;-52
2021/06/22 03:51:03;;;;;;;7.80;7.10;;;21.60;99.90;;;;;;5115728;28;20467;-53
2021/06/22 03:53:30;;;;;;;8.53;6.83;;;21.70;99.90;;;;;;5115652;28;20448;-54
2021/06/22 03:55:57;;;;;;;8.37;6.93;;;21.80;99.90;;;;;;5115356;28;20488;-47
2021/06/22 03:58:25;;;;;;;8.00;7.20;;;21.70;99.90;;;;;;5115634;28;20509;-49
2021/06/22 04:00:51;;;;;;;7.53;6.70;;;21.70;99.90;;;;;;5115327;28;20463;-47
2021/06/22 04:03:18;;;;;;;10.83;7.17;;;21.80;99.90;;;;;;5115277;28;20473;-52
2021/06/22 04:05:45;;;;;;;8.30;7.47;;;21.80;99.90;;;;;;5115424;28;20441;-53
2021/06/22 04:08:11;;;;;;;7.63;6.33;;;21.70;99.90;;;;;;5115226;28;20457;-54
2021/06/22 04:10:38;;;;;;;8.60;7.57;;;21.70;99.90;;;;;;5115217;28;20470;-49
2021/06/22 04:13:05;;;;;;;9.70;7.73;;;21.70;99.90;;;;;;5114977;28;20529;-49
2021/06/22 04:15:33;;;;;;;10.87;6.97;;;21.70;99.90;;;;;;5115301;28;20461;-53
2021/06/22 04:18:04;;;;;;;13.07;8.20;;;21.70;99.90;;;;;;5114951;28;20463;-50
2021/06/22 04:20:31;;;;;;;7.97;7.17;;;21.80;99.90;;;;;;5115193;28;20441;-49
2021/06/22 04:22:58;;;;;;;14.10;8.07;;;21.80;99.90;;;;;;5115266;28;20461;-47
2021/06/22 04:25:25;;;;;;;10.27;8.23;;;21.80;99.90;;;;;;5114881;28;20509;-46
2021/06/22 04:27:52;;;;;;;28.60;9.50;;;21.90;99.90;;;;;;5115167;28;20474;-47
2021/06/22 04:30:19;;;;;;;16.03;8.40;;;21.80;99.90;;;;;;5114838;28;20901;-52
2021/06/22 04:32:49;;;;;;;11.07;8.70;;;21.70;99.90;;;;;;5114894;28;20452;-51
2021/06/22 04:35:16;;;;;;;11.77;10.60;;;21.70;99.90;;;;;;5115151;28;20877;-51
2021/06/22 04:37:44;;;;;;;16.47;10.47;;;21.70;99.90;;;;;;5114825;28;20440;-54
2021/06/22 04:40:12;;;;;;;14.37;9.60;;;21.70;99.90;;;;;;5114723;28;20457;-51
2021/06/22 04:42:39;;;;;;;14.17;9.60;;;21.70;99.90;;;;;;5114786;28;20444;-47
2021/06/22 04:45:07;;;;;;;18.23;9.67;;;21.70;99.90;;;;;;5114901;28;20451;-52
2021/06/22 04:47:34;;;;;;;16.57;11.30;;;21.70;99.90;;;;;;5115117;28;20505;-51
2021/06/22 04:50:03;;;;;;;26.10;11.43;;;21.70;99.90;;;;;;5114721;28;20461;-53
2021/06/22 04:52:30;;;;;;;20.90;12.80;;;21.70;99.90;;;;;;5114284;28;20441;-52
2021/06/22 04:54:57;;;;;;;19.33;12.83;;;21.60;99.90;;;;;;5114564;28;20452;-49
2021/06/22 04:57:23;;;;;;;20.13;11.83;;;21.50;99.90;;;;;;5114477;28;20456;-47
2021/06/22 04:59:50;;;;;;;30.23;14.70;;;21.40;99.90;;;;;;5114800;28;20447;-47
2021/06/22 05:02:17;;;;;;;26.70;14.87;;;21.40;99.90;;;;;;5114691;28;20447;-47
2021/06/22 05:04:43;;;;;;;33.10;14.70;;;21.30;99.90;;;;;;5114679;28;20913;-52
2021/06/22 05:07:12;;;;;;;30.60;18.13;;;21.20;99.90;;;;;;5114569;28;20446;-47
2021/06/22 05:09:40;;;;;;;27.07;17.13;;;21.10;99.90;;;;;;5114757;28;20436;-50
2021/06/22 05:12:10;;;;;;;27.03;16.70;;;20.90;99.90;;;;;;5114423;28;20433;-52
2021/06/22 05:14:37;;;;;;;26.40;17.10;;;20.80;99.90;;;;;;5114233;28;20533;-52
2021/06/22 05:17:04;;;;;;;24.60;17.40;;;20.80;99.90;;;;;;5114528;28;20480;-50
2021/06/22 05:19:30;;;;;;;24.13;17.40;;;20.90;99.90;;;;;;5114408;28;20505;-53
2021/06/22 05:21:57;;;;;;;32.03;19.27;;;20.90;99.90;;;;;;5114317;28;20451;-50
2021/06/22 05:24:25;;;;;;;23.87;17.37;;;20.90;99.90;;;;;;5114252;28;20828;-50
2021/06/22 05:26:52;;;;;;;27.13;19.13;;;20.90;99.90;;;;;;5114609;28;20512;-50
2021/06/22 05:29:19;;;;;;;31.57;20.37;;;20.90;99.90;;;;;;5114798;28;20497;-49
2021/06/22 05:31:45;;;;;;;24.90;18.70;;;20.80;99.90;;;;;;5114366;28;20444;-51
2021/06/22 05:34:12;;;;;;;30.13;21.30;;;20.80;99.90;;;;;;5114409;28;20977;-47
2021/06/22 05:36:39;;;;;;;25.87;19.60;;;20.70;99.90;;;;;;5113677;28;20491;-47
2021/06/22 05:39:05;;;;;;;33.70;22.90;;;20.70;99.90;;;;;;5114489;28;20452;-50
2021/06/22 05:41:33;;;;;;;28.50;20.70;;;20.70;99.90;;;;;;5114087;28;20854;-49
2021/06/22 05:44:00;;;;;;;26.70;18.40;;;20.80;99.90;;;;;;5114204;28;20470;-53
2021/06/22 05:46:27;;;;;;;28.60;17.97;;;20.70;99.90;;;;;;5114050;28;20505;-50
2021/06/22 05:48:56;;;;;;;24.70;17.17;;;20.70;99.90;;;;;;5114186;28;20445;-46
2021/06/22 05:51:24;;;;;;;27.07;15.00;;;20.60;99.90;;;;;;5114522;28;20826;-55
2021/06/22 05:53:51;;;;;;;24.43;14.57;;;20.60;99.90;;;;;;5114517;28;20461;-51
2021/06/22 05:56:18;;;;;;;23.13;14.60;;;20.50;99.90;;;;;;5116952;28;20484;-46
2021/06/22 05:58:46;;;;;;;15.80;12.93;;;20.50;99.90;;;;;;5115955;28;21058;-48
2021/06/22 06:01:13;;;;;;;18.77;12.70;;;20.30;99.90;;;;;;5105206;28;20501;-49
2021/06/22 06:03:42;;;;;;;15.00;10.67;;;20.30;99.90;;;;;;5109578;28;20459;-49
2021/06/22 06:06:09;;;;;;;21.13;12.20;;;20.20;99.90;;;;;;5113194;28;20441;-49
2021/06/22 06:08:36;;;;;;;15.27;10.20;;;20.20;99.90;;;;;;5110956;28;20425;-49
2021/06/22 06:11:04;;;;;;;14.43;9.87;;;20.10;99.90;;;;;;5108383;28;20454;-47
2021/06/22 06:13:31;;;;;;;14.60;9.57;;;20.10;99.90;;;;;;5105898;28;20831;-48
2021/06/22 06:15:59;;;;;;;16.37;8.70;;;20.20;99.90;;;;;;5098306;28;20477;-46
2021/06/22 06:18:26;;;;;;;13.20;9.60;;;20.20;99.90;;;;;;5097437;28;20519;-48
2021/06/22 06:20:53;;;;;;;11.47;8.43;;;20.20;99.90;;;;;;5100713;28;20446;-47
2021/06/22 06:23:21;;;;;;;14.10;10.67;;;20.20;99.90;;;;;;5097455;28;20483;-49
2021/06/22 06:25:48;;;;;;;17.07;11.07;;;20.20;99.90;;;;;;5097819;28;20445;-53
2021/06/22 06:28:17;;;;;;;14.50;9.10;;;20.20;99.90;;;;;;5097815;28;20456;-49
2021/06/22 06:30:44;;;;;;;14.43;8.30;;;20.20;99.90;;;;;;5097389;28;20449;-49
2021/06/22 06:33:13;;;;;;;13.33;9.10;;;20.10;99.90;;;;;;5098304;28;20449;-46
2021/06/22 06:35:40;;;;;;;13.17;8.17;;;20.00;99.90;;;;;;5098131;28;20972;-51
2021/06/22 06:38:07;;;;;;;13.83;8.17;;;20.10;99.90;;;;;;5097205;28;20437;-49
2021/06/22 06:40:35;;;;;;;12.60;9.10;;;20.20;99.90;;;;;;5099027;28;20445;-52
2021/06/22 06:43:02;;;;;;;18.30;7.50;;;20.20;99.90;;;;;;5099491;28;20538;-51
2021/06/22 06:45:29;;;;;;;15.17;9.17;;;20.10;99.90;;;;;;5078763;28;20914;-53
2021/06/22 06:47:56;;;;;;;11.30;7.90;;;20.10;99.90;;;;;;5078709;28;20449;-50
2021/06/22 06:50:26;;;;;;;22.50;8.40;;;20.10;99.90;;;;;;5105665;28;20474;-50
2021/06/22 06:52:53;;;;;;;17.27;8.00;;;20.10;99.90;;;;;;5098404;28;20516;-46
2021/06/22 06:55:26;;;;;;;7.97;5.50;;;20.10;99.90;;;;;;5087221;28;20446;-48
2021/06/22 06:57:54;;;;;;;7.57;5.53;;;20.10;99.90;;;;;;5097493;28;20438;-47
2021/06/22 07:00:22;;;;;;;10.10;6.27;;;20.10;99.90;;;;;;5090028;28;20474;-49
2021/06/22 07:02:49;;;;;;;9.30;5.47;;;20.10;99.90;;;;;;5098953;28;20461;-52
2021/06/22 07:05:15;;;;;;;7.63;5.30;;;20.10;99.90;;;;;;5119488;28;20461;-51
2021/06/22 07:07:43;;;;;;;7.10;5.07;;;20.10;99.90;;;;;;5101126;28;20454;-49
2021/06/22 07:10:12;;;;;;;5.27;4.73;;;20.00;99.90;;;;;;5092125;28;20443;-52
2021/06/22 07:12:39;;;;;;;12.00;7.80;;;19.90;99.90;;;;;;5103783;28;20750;-48
2021/06/22 07:15:07;;;;;;;4.03;3.63;;;19.90;99.90;;;;;;5107162;28;21608;-49
2021/06/22 07:17:37;;;;;;;9.33;4.77;;;20.00;99.90;;;;;;5108256;28;20477;-52
2021/06/22 07:20:04;;;;;;;16.00;5.63;;;20.10;99.90;;;;;;5112178;28;20433;-48
2021/06/22 07:22:31;;;;;;;7.20;4.33;;;20.30;99.90;;;;;;5109894;28;20445;-50
2021/06/22 07:24:59;;;;;;;7.10;5.03;;;20.30;99.90;;;;;;5114550;28;20453;-52
2021/06/22 07:27:26;;;;;;;6.47;4.43;;;20.40;99.90;;;;;;5101123;28;20491;-47
2021/06/22 07:29:53;;;;;;;18.33;6.40;;;20.40;99.90;;;;;;5084153;28;20449;-48
2021/06/22 07:32:19;;;;;;;12.43;5.13;;;20.60;99.90;;;;;;5090846;28;20441;-48
2021/06/22 07:34:46;;;;;;;6.37;5.40;;;20.70;99.90;;;;;;5082308;28;20524;-50
2021/06/22 07:37:13;;;;;;;7.40;4.00;;;20.70;99.90;;;;;;5084074;28;20858;-46
2021/06/22 07:39:40;;;;;;;7.30;3.70;;;20.60;99.90;;;;;;5098353;28;20450;-51
2021/06/22 07:42:08;;;;;;;7.80;5.10;;;20.80;99.90;;;;;;5101328;28;20798;-48
2021/06/22 07:44:35;;;;;;;7.53;4.77;;;20.80;99.90;;;;;;5103377;28;20442;-51
2021/06/22 07:47:02;;;;;;;5.23;4.80;;;20.80;99.90;;;;;;5097142;28;20763;-48
2021/06/22 07:49:29;;;;;;;5.47;4.73;;;20.80;99.90;;;;;;5091273;28;20441;-49
2021/06/22 07:51:55;;;;;;;5.67;4.20;;;20.80;99.90;;;;;;5082866;28;20457;-46
2021/06/22 07:54:22;;;;;;;9.90;4.57;;;20.80;99.90;;;;;;5079598;28;20457;-48
2021/06/22 07:56:49;;;;;;;6.83;6.13;;;20.80;99.90;;;;;;5085139;28;20482;-50
2021/06/22 07:59:17;;;;;;;7.67;5.60;;;20.70;99.90;;;;;;5087832;28;20825;-52
2021/06/22 08:01:44;;;;;;;6.23;5.70;;;20.70;99.90;;;;;;5110742;28;20448;-48
2021/06/22 08:04:10;;;;;;;8.30;4.70;;;20.50;99.90;;;;;;5113989;28;20792;-47
2021/06/22 08:06:38;;;;;;;7.00;6.20;;;20.40;99.90;;;;;;5100165;28;20466;-48
2021/06/22 08:09:05;;;;;;;9.23;4.83;;;20.40;99.90;;;;;;5095222;28;20518;-48
2021/06/22 08:11:32;;;;;;;6.37;5.40;;;20.40;99.90;;;;;;5099351;28;20906;-49
2021/06/22 08:13:59;;;;;;;6.33;5.40;;;20.40;99.90;;;;;;5099991;28;20473;-49
2021/06/22 08:16:27;;;;;;;8.80;5.67;;;20.40;99.90;;;;;;5105045;28;20480;-50
2021/06/22 08:18:53;;;;;;;8.00;5.90;;;20.30;99.90;;;;;;5099312;28;20448;-49
2021/06/22 08:21:20;;;;;;;8.10;7.30;;;20.20;99.90;;;;;;5100969;28;20746;-48
2021/06/22 08:23:47;;;;;;;7.90;5.87;;;20.20;99.90;;;;;;5115050;28;20448;-46
2021/06/22 08:26:13;;;;;;;13.67;6.67;;;20.20;99.90;;;;;;5102372;28;20437;-49
2021/06/22 08:28:40;;;;;;;9.07;6.37;;;20.10;99.90;;;;;;5110280;28;20448;-47
2021/06/22 08:31:07;;;;;;;6.00;5.50;;;20.20;99.90;;;;;;5111314;28;20451;-51
2021/06/22 08:33:36;;;;;;;7.23;6.07;;;20.10;99.90;;;;;;5101785;28;20751;-50
2021/06/22 08:36:04;;;;;;;10.40;6.07;;;20.00;99.90;;;;;;5106263;28;20472;-49
2021/06/22 08:38:30;;;;;;;6.70;6.00;;;19.80;99.90;;;;;;5100654;28;20445;-46
2021/06/22 08:40:57;;;;;;;7.33;6.27;;;19.60;99.90;;;;;;5104063;28;20460;-50
2021/06/22 08:43:24;;;;;;;8.57;5.63;;;19.60;99.90;;;;;;5105114;28;20460;-49
2021/06/22 08:45:51;;;;;;;9.40;5.87;;;19.60;99.90;;;;;;5103306;28;20449;-47
2021/06/22 08:48:18;;;;;;;6.40;4.73;;;19.60;99.90;;;;;;5108054;28;20947;-53
2021/06/22 08:50:47;;;;;;;9.00;4.83;;;19.50;99.90;;;;;;5104922;28;20448;-48
2021/06/22 08:53:15;;;;;;;8.07;6.50;;;19.50;99.90;;;;;;5100177;28;20460;-45
2021/06/22 08:55:43;;;;;;;10.77;5.80;;;19.40;99.90;;;;;;5107700;28;20441;-47
2021/06/22 08:58:11;;;;;;;5.10;4.60;;;19.40;99.90;;;;;;5098897;28;20980;-48
2021/06/22 09:00:39;;;;;;;11.77;6.03;;;19.40;99.90;;;;;;5099165;28;20833;-48
2021/06/22 09:03:11;;;;;;;5.47;4.73;;;19.30;99.90;;;;;;5101758;28;20472;-46
2021/06/22 09:05:38;;;;;;;5.30;4.80;;;19.30;99.90;;;;;;5099468;28;20461;-49
2021/06/22 09:08:17;;;;;;;8.80;4.37;;;19.20;99.90;;;;;;5108637;28;20445;-49
2021/06/22 09:10:44;;;;;;;4.93;4.50;;;19.10;99.90;;;;;;5103621;28;20455;-45
2021/06/22 09:13:13;;;;;;;8.47;5.13;;;19.10;99.90;;;;;;5100036;28;20475;-49
2021/06/22 09:15:43;;;;;;;10.07;6.70;;;19.10;99.90;;;;;;5099431;28;20441;-46
2021/06/22 09:18:24;;;;;;;9.33;6.10;;;19.20;99.90;;;;;;5077128;28;20478;-46
2021/06/22 09:20:51;;;;;;;6.17;5.57;;;19.30;99.90;;;;;;5085091;28;20906;-47
2021/06/22 09:23:21;;;;;;;8.47;4.80;;;19.30;99.90;;;;;;5093043;28;20446;-49
2021/06/22 09:25:50;;;;;;;9.57;5.97;;;19.40;99.90;;;;;;5092132;28;20455;-48
2021/06/22 09:28:18;;;;;;;8.07;6.60;;;19.50;99.90;;;;;;5098927;28;20837;-46
2021/06/22 09:30:51;;;;;;;7.40;6.70;;;19.50;99.90;;;;;;5104885;28;20444;-47
2021/06/22 09:33:24;;;;;;;7.80;5.30;;;19.50;99.90;;;;;;5099369;28;20449;-52
2021/06/22 09:35:57;;;;;;;5.33;4.83;;;19.50;99.90;;;;;;5088039;28;20477;-48
2021/06/22 09:38:28;;;;;;;9.23;4.70;;;19.60;99.90;;;;;;5103955;28;20533;-45
2021/06/22 09:41:05;;;;;;;5.03;4.43;;;19.80;99.90;;;;;;5104298;28;20453;-48
2021/06/22 09:43:36;;;;;;;5.37;4.77;;;20.00;99.90;;;;;;5081576;28;20910;-48
2021/06/22 09:46:05;;;;;;;15.20;5.77;;;19.90;99.90;;;;;;5106432;28;20448;-51
2021/06/22 09:48:44;;;;;;;4.77;4.10;;;19.90;99.90;;;;;;5092198;28;20453;-49
2021/06/22 09:51:11;;;;;;;7.20;4.03;;;19.80;99.90;;;;;;5079707;28;20533;-45
2021/06/22 09:53:40;;;;;;;6.20;4.07;;;19.70;99.90;;;;;;5101545;28;20523;-51
2021/06/22 09:56:18;;;;;;;4.97;3.83;;;19.80;99.90;;;;;;5089572;28;20450;-47
2021/06/22 09:58:45;;;;;;;6.90;5.20;;;19.80;99.90;;;;;;5099035;28;20998;-52
2021/06/22 10:01:31;;;;;;;9.80;4.40;;;19.80;99.90;;;;;;5110918;28;20814;-50
2021/06/22 10:04:16;;;;;;;6.33;4.57;;;19.80;99.90;;;;;;5108513;28;20637;-52
2021/06/22 10:06:47;;;;;;;7.83;4.57;;;19.90;99.90;;;;;;5099902;28;20440;-50
2021/06/22 10:09:20;;;;;;;7.10;3.93;;;20.00;99.90;;;;;;5101631;28;20432;-48
2021/06/22 10:11:46;;;;;;;6.80;4.13;;;20.00;99.90;;;;;;5095091;28;20460;-47
2021/06/22 10:14:24;;;;;;;8.00;4.83;;;20.20;99.90;;;;;;5101387;28;20460;-53
2021/06/22 10:16:51;;;;;;;9.27;4.60;;;20.30;99.90;;;;;;5107900;28;20476;-47
2021/06/22 10:19:20;;;;;;;4.83;4.23;;;20.40;99.90;;;;;;5114654;28;20448;-49
2021/06/22 10:21:48;;;;;;;6.37;4.50;;;20.50;99.90;;;;;;5102065;28;20506;-49
2021/06/22 10:24:16;;;;;;;5.13;4.10;;;20.50;99.90;;;;;;5105638;28;20457;-48
2021/06/22 10:26:43;;;;;;;6.63;4.70;;;20.50;99.90;;;;;;5101690;28;20456;-53
2021/06/22 10:29:10;;;;;;;6.53;4.33;;;20.60;99.90;;;;;;5126371;27;20790;-54
2021/06/22 10:31:37;;;;;;;9.73;3.87;;;20.60;99.90;;;;;;5126539;27;20502;-52
2021/06/22 10:34:04;;;;;;;5.77;4.07;;;20.60;99.90;;;;;;5114288;27;20448;-50
2021/06/22 10:36:34;;;;;;;11.60;5.27;;;20.60;99.90;;;;;;5126178;27;20444;-49
2021/06/22 10:39:05;;;;;;;10.23;4.10;;;20.60;99.90;;;;;;5101852;28;20438;-48
2021/06/22 10:41:39;;;;;;;5.10;4.37;;;20.50;99.90;;;;;;5099338;27;20445;-52
2021/06/22 10:44:30;;;;;;;4.77;4.20;;;20.30;99.90;;;;;;5114900;28;20452;-50
2021/06/22 10:47:19;;;;;;;5.67;3.90;;;20.30;99.90;;;;;;5101959;28;20457;-48
2021/06/22 10:50:10;;;;;;;6.00;4.53;;;20.20;99.90;;;;;;5101806;28;20457;-49
2021/06/22 10:52:50;;;;;;;5.20;4.27;;;20.30;99.90;;;;;;5117551;27;20770;-47
2021/06/22 10:55:20;;;;;;;6.80;4.67;;;20.30;99.90;;;;;;5108089;27;20452;-49
2021/06/22 10:58:12;;;;;;;6.80;4.20;;;20.30;99.90;;;;;;5127200;27;20489;-48
2021/06/22 11:01:08;;;;;;;6.43;4.60;;;20.30;99.90;;;;;;5106605;28;20460;-47
2021/06/22 11:03:36;;;;;;;7.10;4.13;;;20.30;99.90;;;;;;5116921;27;20495;-50
2021/06/22 11:06:26;;;;;;;6.80;4.50;;;20.30;99.90;;;;;;5111189;28;20457;-49
2021/06/22 11:08:53;;;;;;;5.40;4.90;;;20.30;99.90;;;;;;5116220;28;20440;-52
2021/06/22 11:11:23;;;;;;;6.37;4.97;;;20.20;99.90;;;;;;5101484;28;20451;-47
2021/06/22 11:13:55;;;;;;;7.43;6.73;;;20.10;99.90;;;;;;5115030;27;20473;-48
2021/06/22 11:16:33;;;;;;;10.33;6.40;;;20.00;99.90;;;;;;5093967;28;20437;-48
2021/06/22 11:19:06;;;;;;;8.57;6.40;;;20.00;99.90;;;;;;5085033;28;20489;-49
2021/06/22 11:21:35;;;;;;;10.60;4.77;;;20.10;99.90;;;;;;5089796;28;20463;-48
2021/06/22 11:24:05;;;;;;;6.70;4.80;;;20.20;99.90;;;;;;5088609;28;20449;-48
2021/06/22 11:26:59;;;;;;;6.13;5.13;;;20.30;99.90;;;;;;5095331;28;20476;-47
2021/06/22 11:29:48;;;;;;;5.73;5.10;;;20.30;99.90;;;;;;5089358;28;20797;-51
2021/06/22 11:32:35;;;;;;;5.60;4.53;;;20.20;99.90;;;;;;5089147;28;20434;-49
2021/06/22 11:35:03;;;;;;;5.03;4.53;;;20.30;99.90;;;;;;5088550;28;20533;-52
2021/06/22 11:37:30;;;;;;;8.77;5.43;;;20.30;99.90;;;;;;5090944;28;20970;-50
2021/06/22 11:40:04;;;;;;;6.20;4.57;;;20.30;99.90;;;;;;5083969;28;20448;-49
2021/06/22 11:42:35;;;;;;;6.03;4.70;;;20.40;99.90;;;;;;5100475;28;20870;-46
2021/06/22 11:45:24;;;;;;;5.17;4.03;;;20.50;99.90;;;;;;5100604;28;20234;-45
2021/06/22 11:48:03;;;;;;;6.60;4.30;;;20.90;99.90;;;;;;5100164;28;20447;-45
2021/06/22 11:50:40;;;;;;;8.83;4.10;;;21.50;99.90;;;;;;5080934;28;20441;-47
2021/06/22 11:53:12;;;;;;;8.13;5.30;;;21.70;99.90;;;;;;5081413;28;20971;-49
2021/06/22 11:55:42;;;;;;;8.60;4.87;;;21.70;99.90;;;;;;5079386;28;20441;-48
2021/06/22 11:58:09;;;;;;;4.17;3.80;;;21.80;99.90;;;;;;5095538;28;20487;-46
2021/06/22 12:00:37;;;;;;;4.93;3.90;;;21.70;99.90;;;;;;5103631;28;20937;-50
2021/06/22 12:03:06;;;;;;;6.27;4.13;;;21.70;99.90;;;;;;5110281;28;20461;-47
2021/06/22 12:05:35;;;;;;;5.77;4.20;;;21.80;99.90;;;;;;5109374;28;20497;-48
2021/06/22 12:08:03;;;;;;;6.03;4.43;;;21.80;99.90;;;;;;5094758;28;20437;-48
2021/06/22 12:10:43;;;;;;;4.27;3.87;;;22.00;99.90;;;;;;5102131;28;20467;-44
2021/06/22 12:13:10;;;;;;;8.80;4.87;;;22.10;99.90;;;;;;5106374;28;20537;-50
2021/06/22 12:15:40;;;;;;;6.20;4.70;;;22.20;99.90;;;;;;5104809;28;20450;-46
2021/06/22 12:18:08;;;;;;;7.57;5.00;;;22.10;99.90;;;;;;5092125;28;20940;-47
2021/06/22 12:20:37;;;;;;;6.67;4.60;;;22.00;99.90;;;;;;5101954;28;21058;-49
2021/06/22 12:23:07;;;;;;;5.53;3.80;;;22.00;99.90;;;;;;5108370;28;20453;-47
2021/06/22 12:25:36;;;;;;;6.23;4.77;;;21.90;99.90;;;;;;5098976;28;20451;-47
2021/06/22 12:28:04;;;;;;;11.40;4.00;;;22.00;99.90;;;;;;5097180;28;20461;-50
2021/06/22 12:30:36;;;;;;;6.27;4.17;;;22.00;99.90;;;;;;5107914;28;20446;-53
2021/06/22 12:33:13;;;;;;;9.63;5.00;;;22.00;99.90;;;;;;5107949;28;20440;-51
2021/06/22 12:35:40;;;;;;;5.17;3.80;;;22.00;99.90;;;;;;5111448;28;20428;-50
2021/06/22 12:38:09;;;;;;;5.53;4.53;;;22.00;99.90;;;;;;5099693;28;20957;-53
2021/06/22 12:40:44;;;;;;;6.77;5.00;;;22.10;99.90;;;;;;5095344;28;20442;-47
2021/06/22 12:43:12;;;;;;;4.80;4.07;;;22.30;99.90;;;;;;5091788;28;20451;-47
2021/06/22 12:45:39;;;;;;;8.10;5.10;;;22.40;99.90;;;;;;5091069;28;20461;-50
2021/06/22 12:48:07;;;;;;;4.63;3.80;;;22.40;99.90;;;;;;5092161;28;20438;-47
2021/06/22 12:50:37;;;;;;;7.13;4.17;;;22.50;99.90;;;;;;5091114;28;20449;-51
2021/06/22 12:53:04;;;;;;;5.00;3.80;;;22.80;99.90;;;;;;5090839;28;20438;-46